This is the latest recevied weather packets stored in our database for station/object E70ARA-3. If no packets are shown the sender has not sent any weather packets the latest 10 day(s).
| Time | Temp. | Humidity | Pressure | Rain* | Wind** | Luminosity | Snow |
|---|---|---|---|---|---|---|---|
| 1777628571 | 18.89° C | 17% | 1036.2 hPa | - | - | - | - |
| 1777627671 | 21.11° C | 16% | 1036.1 hPa | - | - | - | - |
| 1777626771 | 20.56° C | 15% | 1036.2 hPa | - | - | - | - |
| 1777625871 | 21.11° C | 15% | 1036.2 hPa | - | - | - | - |
| 1777624970 | 21.11° C | 20% | 1036.4 hPa | - | - | - | - |
| 1777624070 | 18.89° C | 28% | 1036.6 hPa | - | - | - | - |
| 1777623169 | 18.89° C | 29% | 1036.8 hPa | - | - | - | - |
| 1777622268 | 17.22° C | 32% | 1036.9 hPa | - | - | - | - |
| 1777621372 | 16.67° C | 33% | 1037.1 hPa | - | - | - | - |
| 1777620472 | 15.56° C | 35% | 1037.3 hPa | - | - | - | - |
| 1777619572 | 14.44° C | 35% | 1037.5 hPa | - | - | - | - |
| 1777618671 | 13.89° C | 42% | 1037.7 hPa | - | - | - | - |
| 1777617771 | 11.11° C | 43% | 1037.9 hPa | - | - | - | - |
| 1777616871 | 10.56° C | 45% | 1038 hPa | - | - | - | - |
| 1777615971 | 10° C | 46% | 1038.1 hPa | - | - | - | - |
| 1777615071 | 8.89° C | 51% | 1038.1 hPa | - | - | - | - |
| 1777614170 | 6.67° C | 59% | 1038.2 hPa | - | - | - | - |
| 1777613270 | 3.89° C | 70% | 1038.4 hPa | - | - | - | - |
| 1777612370 | 2.22° C | 73% | 1038.5 hPa | - | - | - | - |
| 1777611470 | 2.78° C | 74% | 1038.3 hPa | - | - | - | - |
| 1777610570 | 2.22° C | 75% | 1038.2 hPa | - | - | - | - |
| 1777609669 | 1.67° C | 75% | 1038.1 hPa | - | - | - | - |
| 1777608769 | 1.67° C | 75% | 1038.1 hPa | - | - | - | - |
| 1777607869 | 1.67° C | 76% | 1038.1 hPa | - | - | - | - |
| 1777606969 | 1.67° C | 75% | 1038.1 hPa | - | - | - | - |
* Rain since midnight (hover to see other rain measurements)
** Current wind speed in m/s (hover to see current wind gust speed)